Time;durP1;ratioP1;P1;durP2;ratioP2;P2;SDS_P1;SDS_P2;PMS_P1;PMS_P2;Temp;Humidity;BMP_temperature;BMP_pressure;BME280_temperature;BME280_humidity;BME280_pressure;Samples;Min_cycle;Max_cycle;Signal;HPM_P1;HPM_P2
2023/01/30 00:01:46;;;;;;;13.13;11.93;;;;;;;-0.19;100.00;99332.94;4173196;28;20318;-46
2023/01/30 00:03:47;;;;;;;15.17;12.67;;;;;;;-0.22;100.00;99344.00;4188375;28;20223;-46
2023/01/30 00:05:50;;;;;;;13.50;12.13;;;;;;;-0.22;100.00;99322.50;4183771;28;20721;-46
2023/01/30 00:07:51;;;;;;;13.67;12.07;;;;;;;-0.21;100.00;99320.66;4183530;28;20642;-46
2023/01/30 00:09:53;;;;;;;12.83;11.07;;;;;;;-0.19;100.00;99322.19;4181585;28;20212;-46
2023/01/30 00:11:55;;;;;;;13.77;10.47;;;;;;;-0.13;100.00;99320.69;4181177;28;20207;-46
2023/01/30 00:13:57;;;;;;;10.90;9.80;;;;;;;-0.29;100.00;99315.25;4180422;28;20232;-46
2023/01/30 00:15:59;;;;;;;13.80;12.37;;;;;;;-0.29;100.00;99312.56;4183198;28;20239;-46
2023/01/30 00:18:00;;;;;;;12.07;10.93;;;;;;;-0.37;100.00;99318.75;4178402;28;20899;-46
2023/01/30 00:20:03;;;;;;;14.33;12.87;;;;;;;-0.26;100.00;99320.31;4181375;28;20668;-46
2023/01/30 00:22:04;;;;;;;18.63;12.97;;;;;;;-0.32;100.00;99326.31;4181887;28;20661;-46
2023/01/30 00:24:09;;;;;;;16.73;12.57;;;;;;;-0.25;100.00;99321.97;4170672;28;20235;-46
2023/01/30 00:26:11;;;;;;;18.03;14.23;;;;;;;-0.31;100.00;99325.31;4178549;28;20216;-46
2023/01/30 00:28:13;;;;;;;13.83;11.43;;;;;;;-0.25;100.00;99327.34;4183423;28;20704;-46
2023/01/30 00:30:15;;;;;;;14.40;12.40;;;;;;;-0.19;100.00;99321.34;4180760;28;20299;-46
2023/01/30 00:32:18;;;;;;;13.57;11.40;;;;;;;-0.26;100.00;99325.69;4181362;28;20214;-46
2023/01/30 00:34:19;;;;;;;16.33;13.07;;;;;;;-0.26;100.00;99331.06;4189002;28;20326;-46
2023/01/30 00:36:21;;;;;;;18.83;13.27;;;;;;;-0.14;100.00;99324.38;4197683;28;20262;-47
2023/01/30 00:38:23;;;;;;;15.60;13.27;;;;;;;-0.19;100.00;99315.94;4183073;28;20659;-47
2023/01/30 00:40:26;;;;;;;15.93;14.33;;;;;;;-0.19;100.00;99305.19;4184697;28;20574;-46
2023/01/30 00:47:09;;;;;;;14.37;11.30;;;;;;;-0.33;100.00;99277.13;4184651;28;20247;-46
2023/01/30 00:49:11;;;;;;;13.80;12.40;;;;;;;-0.27;100.00;99270.22;4180535;28;20676;-45
2023/01/30 00:51:13;;;;;;;13.30;10.67;;;;;;;-0.35;100.00;99264.84;4168134;28;20258;-46
2023/01/30 00:53:15;;;;;;;12.93;10.07;;;;;;;-0.31;100.00;99258.09;4188312;28;20333;-46
2023/01/30 00:55:17;;;;;;;15.93;12.37;;;;;;;-0.39;100.00;99233.91;4181999;28;22070;-46
2023/01/30 00:57:19;;;;;;;15.67;13.00;;;;;;;-0.34;100.00;99239.63;4179414;28;20600;-46
2023/01/30 00:59:20;;;;;;;13.93;12.47;;;;;;;-0.32;100.00;99267.19;4181580;28;20247;-46
2023/01/30 01:01:22;;;;;;;13.67;12.33;;;;;;;-0.36;100.00;99265.84;4181581;28;20220;-47
2023/01/30 01:03:24;;;;;;;21.03;13.13;;;;;;;-0.27;100.00;99254.09;4180047;28;20211;-47
2023/01/30 01:05:26;;;;;;;13.63;12.27;;;;;;;-0.27;100.00;99246.03;4180217;28;20284;-47
2023/01/30 01:07:28;;;;;;;13.10;11.70;;;;;;;-0.26;100.00;99255.78;4181178;28;20207;-46
2023/01/30 01:09:30;;;;;;;12.27;11.17;;;;;;;-0.27;100.00;99238.78;4183858;28;20215;-47
2023/01/30 01:11:31;;;;;;;12.53;10.87;;;;;;;-0.37;100.00;99248.00;4180884;28;20200;-46
2023/01/30 01:13:33;;;;;;;12.10;10.77;;;;;;;-0.29;100.00;99230.06;4181466;28;20258;-46
2023/01/30 01:15:35;;;;;;;15.83;11.33;;;;;;;-0.32;100.00;99234.91;4183633;28;20203;-46
2023/01/30 01:17:38;;;;;;;14.70;12.07;;;;;;;-0.35;100.00;99241.47;4165904;28;20215;-46
2023/01/30 01:19:40;;;;;;;13.37;11.97;;;;;;;-0.27;100.00;99241.47;4181887;28;20203;-46
2023/01/30 01:21:42;;;;;;;12.57;11.27;;;;;;;-0.29;100.00;99224.69;4167018;28;20215;-46
2023/01/30 01:23:44;;;;;;;12.67;11.47;;;;;;;-0.27;100.00;99227.22;4168662;28;20267;-46
2023/01/30 01:25:45;;;;;;;16.13;10.60;;;;;;;-0.25;100.00;99242.19;4198618;28;20230;-46
2023/01/30 01:27:51;;;;;;;13.37;12.03;;;;;;;-0.27;100.00;99232.59;4185030;28;20234;-47
2023/01/30 01:29:52;;;;;;;11.63;10.53;;;;;;;-0.25;100.00;99246.69;4184409;28;20231;-47
2023/01/30 01:31:56;;;;;;;15.07;12.33;;;;;;;-0.24;100.00;99237.63;4182091;28;20241;-46
2023/01/30 01:33:58;;;;;;;13.50;11.70;;;;;;;-0.27;100.00;99264.84;4179589;28;20220;-46
2023/01/30 01:36:00;;;;;;;16.73;11.73;;;;;;;-0.25;100.00;99252.94;4162861;28;20234;-46
2023/01/30 01:38:04;;;;;;;16.60;12.97;;;;;;;-0.25;100.00;99252.94;4184585;28;20728;-44
2023/01/30 01:42:34;;;;;;;15.57;12.17;;;;;;;-0.26;100.00;99228.88;4180042;28;20287;-46
2023/01/30 01:45:00;;;;;;;12.33;11.00;;;;;;;-0.30;100.00;99222.16;4182854;28;20595;-46
2023/01/30 01:47:02;;;;;;;11.33;10.23;;;;;;;-0.29;100.00;99213.09;4131190;28;20212;-46
2023/01/30 01:49:17;;;;;;;17.80;13.30;;;;;;;-0.34;100.00;99220.81;4179694;28;20580;-46
2023/01/30 01:51:29;;;;;;;17.17;11.33;;;;;;;-0.27;100.00;99205.72;4179374;28;20656;-47
2023/01/30 01:53:40;;;;;;;13.33;11.53;;;;;;;-0.33;100.00;99176.78;4180486;28;20223;-46
2023/01/30 01:55:43;;;;;;;14.90;13.30;;;;;;;-0.39;100.00;99174.75;4187430;28;20208;-47
2023/01/30 01:57:48;;;;;;;14.47;12.97;;;;;;;-0.34;100.00;99156.31;4186822;28;21005;-46
2023/01/30 02:00:14;;;;;;;23.67;14.37;;;;;;;-0.33;100.00;99157.97;4180293;28;20204;-46
2023/01/30 02:02:16;;;;;;;13.80;12.50;;;;;;;-0.27;100.00;99157.31;4175254;28;20294;-46
2023/01/30 02:05:00;;;;;;;15.67;14.03;;;;;;;-0.27;100.00;99162.69;4181281;28;20749;-47
2023/01/30 02:06:40;;;;;;;14.57;12.83;;;;;;;-0.32;100.00;99165.03;4183541;28;20223;-46
2023/01/30 02:08:46;;;;;;;15.80;13.73;;;;;;;-0.26;100.00;99159.00;4182966;28;20600;-46
2023/01/30 02:11:04;;;;;;;14.70;13.20;;;;;;;-0.25;100.00;99171.41;4181982;28;20741;-46
2023/01/30 02:13:06;;;;;;;14.10;12.63;;;;;;;-0.24;100.00;99167.72;4173580;28;20254;-46
2023/01/30 02:15:08;;;;;;;21.47;12.83;;;;;;;-0.24;100.00;99163.19;4186801;28;20219;-46
2023/01/30 02:17:09;;;;;;;17.70;12.07;;;;;;;-0.19;100.00;99176.13;4180247;28;20737;-46
2023/01/30 02:19:50;;;;;;;14.97;13.40;;;;;;;-0.17;100.00;99176.81;4181070;28;20204;-46
2023/01/30 02:22:22;;;;;;;19.13;10.63;;;;;;;-0.18;100.00;99161.69;4180766;28;20208;-46
2023/01/30 02:24:49;;;;;;;17.93;13.27;;;;;;;-0.22;100.00;99160.34;4182797;28;20724;-46
2023/01/30 02:27:29;;;;;;;14.53;11.90;;;;;;;-0.31;100.00;99151.44;4179587;28;20761;-46
2023/01/30 02:30:05;;;;;;;16.03;13.43;;;;;;;-0.36;100.00;99136.81;4174054;28;20634;-47
2023/01/30 02:32:30;;;;;;;15.67;13.97;;;;;;;-0.36;100.00;99131.44;4180952;28;20191;-46
2023/01/30 02:34:44;;;;;;;18.23;13.40;;;;;;;-0.34;100.00;99118.66;4180926;28;20347;-46
2023/01/30 02:37:04;;;;;;;15.47;13.50;;;;;;;-0.34;100.00;99129.41;4182441;28;20780;-47
2023/01/30 02:39:43;;;;;;;15.33;13.47;;;;;;;-0.30;100.00;99125.38;4188582;28;21174;-46
2023/01/30 02:41:45;;;;;;;19.90;14.53;;;;;;;-0.38;100.00;99136.13;4184105;28;20681;-46
2023/01/30 02:43:59;;;;;;;25.33;13.57;;;;;;;-0.33;100.00;99141.84;4179952;28;20752;-46
2023/01/30 02:46:09;;;;;;;18.30;14.97;;;;;;;-0.29;100.00;99170.91;4180189;28;22017;-46
2023/01/30 02:48:45;;;;;;;18.10;13.40;;;;;;;-0.36;100.00;99159.13;4181701;28;20573;-46
2023/01/30 02:50:57;;;;;;;14.33;12.67;;;;;;;-0.42;100.00;99142.84;4177963;28;20789;-46
2023/01/30 02:52:59;;;;;;;15.77;13.97;;;;;;;-0.31;100.00;99123.69;4184189;28;20260;-46
2023/01/30 02:55:09;;;;;;;19.37;15.40;;;;;;;-0.40;100.00;99135.47;4178065;28;20204;-46
2023/01/30 02:57:22;;;;;;;17.40;15.60;;;;;;;-0.36;100.00;99147.56;4182045;28;20700;-46
2023/01/30 02:59:26;;;;;;;14.27;12.70;;;;;;;-0.30;100.00;99142.34;4181944;28;20208;-46
2023/01/30 03:01:34;;;;;;;24.03;16.07;;;;;;;-0.39;100.00;99154.13;4180124;28;20258;-46
2023/01/30 03:03:38;;;;;;;16.07;14.23;;;;;;;-0.30;100.00;99146.88;4183042;28;20228;-46
2023/01/30 03:05:59;;;;;;;24.27;14.93;;;;;;;-0.30;100.00;99147.72;4183903;28;20720;-47
2023/01/30 03:08:09;;;;;;;21.53;15.27;;;;;;;-0.29;100.00;99149.41;4187267;28;20235;-46
2023/01/30 03:10:17;;;;;;;25.30;14.57;;;;;;;-0.31;100.00;99142.50;4182267;28;20665;-46
2023/01/30 03:12:37;;;;;;;16.13;13.00;;;;;;;-0.32;100.00;99138.16;4181028;28;21005;-47
2023/01/30 03:14:48;;;;;;;27.00;15.33;;;;;;;-0.38;100.00;99145.03;4185279;28;20309;-46
2023/01/30 03:16:52;;;;;;;17.00;15.20;;;;;;;-0.30;100.00;99142.34;4184142;28;20199;-46
2023/01/30 03:18:54;;;;;;;15.47;13.83;;;;;;;-0.22;100.00;99134.28;4188180;28;20773;-46
2023/01/30 03:20:55;;;;;;;18.17;14.50;;;;;;;-0.24;100.00;99140.84;4182895;28;20243;-46
2023/01/30 03:22:57;;;;;;;25.10;15.73;;;;;;;-0.34;100.00;99130.25;4180408;28;20297;-46
2023/01/30 03:24:59;;;;;;;22.03;14.57;;;;;;;-0.37;100.00;99140.47;4184466;28;20227;-46
2023/01/30 03:27:05;;;;;;;18.87;12.13;;;;;;;-0.33;100.00;99141.84;4163031;28;20236;-46
2023/01/30 03:29:07;;;;;;;14.17;12.80;;;;;;;-0.40;100.00;99130.06;4181274;28;20208;-45
2023/01/30 03:31:09;;;;;;;19.23;14.83;;;;;;;-0.51;100.00;99117.81;4185297;28;20207;-45
2023/01/30 03:33:11;;;;;;;18.73;15.90;;;;;;;-0.51;100.00;99122.31;4186421;28;20257;-46
2023/01/30 03:35:16;;;;;;;21.60;14.10;;;;;;;-0.50;100.00;99135.59;4167074;28;20204;-46
2023/01/30 03:37:18;;;;;;;18.13;14.70;;;;;;;-0.46;100.00;99128.06;4171005;28;20659;-46
2023/01/30 03:39:22;;;;;;;16.50;13.00;;;;;;;-0.52;100.00;99128.72;4185936;28;20235;-46
2023/01/30 03:41:24;;;;;;;17.40;15.07;;;;;;;-0.47;100.00;99134.44;4183228;28;20238;-47
2023/01/30 03:43:25;;;;;;;17.13;13.70;;;;;;;-0.53;100.00;99143.16;4181459;28;20280;-46
2023/01/30 03:45:27;;;;;;;19.60;13.77;;;;;;;-0.52;100.00;99151.06;4178955;28;20235;-46
2023/01/30 03:47:29;;;;;;;19.37;15.13;;;;;;;-0.46;100.00;99126.22;4182566;28;20219;-46
2023/01/30 03:49:38;;;;;;;20.80;15.00;;;;;;;-0.40;100.00;99130.91;4167629;28;20262;-46
2023/01/30 03:51:49;;;;;;;17.10;14.60;;;;;;;-0.48;100.00;99122.84;4181360;28;20294;-46
2023/01/30 03:53:51;;;;;;;20.00;14.90;;;;;;;-0.48;100.00;99127.38;4190230;28;20227;-47
2023/01/30 03:55:53;;;;;;;21.70;14.60;;;;;;;-0.42;100.00;99110.59;4191245;28;20231;-48
2023/01/30 03:57:58;;;;;;;16.13;14.00;;;;;;;-0.45;100.00;99110.91;4181998;28;20276;-46
2023/01/30 03:59:59;;;;;;;21.37;15.40;;;;;;;-0.47;100.00;99118.31;4181360;28;20588;-46
2023/01/30 04:02:01;;;;;;;15.87;13.07;;;;;;;-0.47;100.00;99123.69;4183320;28;20298;-46
2023/01/30 04:04:03;;;;;;;20.27;14.53;;;;;;;-0.49;100.00;99114.97;4170293;28;20852;-46
2023/01/30 04:06:05;;;;;;;26.27;13.37;;;;;;;-0.40;100.00;99112.09;4188272;28;20306;-46
2023/01/30 04:08:07;;;;;;;14.77;13.27;;;;;;;-0.33;100.00;99117.66;4185726;28;20243;-48
2023/01/30 04:10:09;;;;;;;16.67;14.43;;;;;;;-0.32;100.00;99097.81;4185457;28;20295;-46
2023/01/30 04:12:12;;;;;;;20.43;14.53;;;;;;;-0.35;100.00;99100.88;4186748;28;20295;-47
2023/01/30 04:14:14;;;;;;;20.80;14.97;;;;;;;-0.34;100.00;99110.59;4182413;28;20234;-46
2023/01/30 04:16:18;;;;;;;14.30;11.73;;;;;;;-0.35;100.00;99117.81;4184005;28;20212;-46
2023/01/30 04:18:20;;;;;;;15.53;13.97;;;;;;;-0.27;100.00;99120.50;4186944;28;20249;-46
2023/01/30 04:20:22;;;;;;;14.80;12.43;;;;;;;-0.26;100.00;99122.22;4183536;28;21872;-47
2023/01/30 04:22:24;;;;;;;15.80;12.07;;;;;;;-0.26;100.00;99124.91;4187152;28;20235;-46
2023/01/30 04:24:25;;;;;;;15.80;13.43;;;;;;;-0.28;100.00;99136.81;4188154;28;20258;-46
2023/01/30 04:26:27;;;;;;;13.30;11.57;;;;;;;-0.24;100.00;99143.53;4181681;28;20717;-46
2023/01/30 04:28:29;;;;;;;13.93;12.53;;;;;;;-0.21;100.00;99145.91;4186326;28;20217;-46
2023/01/30 04:30:31;;;;;;;13.50;12.10;;;;;;;-0.15;100.00;99129.09;4181808;28;20211;-46
2023/01/30 04:32:32;;;;;;;18.50;11.23;;;;;;;-0.22;100.00;99126.22;4183531;28;20287;-46
2023/01/30 04:34:34;;;;;;;19.17;11.77;;;;;;;-0.25;100.00;99123.03;4181444;28;20231;-47
2023/01/30 04:36:36;;;;;;;11.67;10.50;;;;;;;-0.27;100.00;99115.13;4170386;28;20675;-46
2023/01/30 04:38:38;;;;;;;15.17;11.47;;;;;;;-0.30;100.00;99120.84;4182162;28;20282;-46
2023/01/30 04:40:40;;;;;;;13.47;11.97;;;;;;;-0.21;100.00;99108.25;4182947;28;20204;-46
2023/01/30 04:42:41;;;;;;;13.33;11.30;;;;;;;-0.18;100.00;99108.75;4183089;28;20646;-46
2023/01/30 04:44:43;;;;;;;16.10;14.07;;;;;;;-0.29;100.00;99097.50;4170556;28;20238;-47
2023/01/30 04:46:45;;;;;;;16.93;12.33;;;;;;;-0.20;100.00;99101.88;4177447;28;20257;-46
2023/01/30 04:48:47;;;;;;;14.57;12.70;;;;;;;-0.22;100.00;99095.81;4175800;28;20475;-46
2023/01/30 04:50:51;;;;;;;14.80;10.53;;;;;;;-0.22;100.00;99101.19;4179708;28;20319;-46
2023/01/30 04:52:53;;;;;;;15.83;11.13;;;;;;;-0.17;100.00;99090.75;4180768;28;20550;-47
2023/01/30 04:54:55;;;;;;;17.40;12.77;;;;;;;-0.16;100.00;99084.41;4181106;28;20239;-46
2023/01/30 04:56:57;;;;;;;12.80;11.50;;;;;;;-0.21;100.00;99098.31;4179194;28;20196;-46
2023/01/30 04:58:59;;;;;;;16.23;11.97;;;;;;;-0.21;100.00;99086.75;4168765;28;20212;-47
2023/01/30 05:01:25;;;;;;;14.70;11.03;;;;;;;-0.30;100.00;99098.50;4182679;28;20211;-46
2023/01/30 05:03:27;;;;;;;12.97;11.30;;;;;;;-0.18;100.00;99102.53;4185764;28;20621;-46
2023/01/30 05:05:29;;;;;;;15.97;11.97;;;;;;;-0.22;100.00;99083.22;4182859;28;20211;-46
2023/01/30 05:07:30;;;;;;;14.10;12.30;;;;;;;-0.24;100.00;99069.09;4182076;28;20228;-46
2023/01/30 05:09:32;;;;;;;11.53;10.40;;;;;;;-0.17;100.00;99066.56;4179792;28;20215;-47
2023/01/30 05:11:34;;;;;;;12.40;10.77;;;;;;;-0.26;100.00;99044.25;4179102;28;20246;-46
2023/01/30 05:13:36;;;;;;;16.17;13.03;;;;;;;-0.33;100.00;99040.56;4182344;28;20231;-46
2023/01/30 05:15:38;;;;;;;12.30;11.10;;;;;;;-0.31;100.00;99034.97;4179391;28;20265;-46
2023/01/30 05:17:40;;;;;;;16.03;10.40;;;;;;;-0.33;100.00;99035.19;4180264;28;20273;-46
2023/01/30 05:19:45;;;;;;;16.10;13.23;;;;;;;-0.30;100.00;99029.44;4181380;28;20236;-46
2023/01/30 05:21:46;;;;;;;13.63;11.17;;;;;;;-0.30;100.00;99029.44;4180635;28;21140;-46
2023/01/30 05:23:50;;;;;;;13.10;6.40;;;;;;;-0.20;100.00;99034.66;4180111;28;20821;-46
2023/01/30 05:25:51;;;;;;;14.73;12.20;;;;;;;-0.20;100.00;99037.34;4180699;28;20218;-46
2023/01/30 05:27:53;;;;;;;13.83;11.77;;;;;;;-0.16;100.00;99027.94;4179670;28;20231;-46
2023/01/30 05:29:55;;;;;;;14.13;12.77;;;;;;;-0.18;100.00;99021.88;4179342;28;20628;-46
2023/01/30 05:31:57;;;;;;;10.70;9.50;;;;;;;-0.07;100.00;99020.50;4177895;28;20214;-45
2023/01/30 05:33:59;;;;;;;12.73;10.97;;;;;;;-0.09;100.00;99020.88;4180091;28;20251;-46
2023/01/30 05:36:01;;;;;;;10.53;9.50;;;;;;;-0.06;100.00;99015.97;4181152;28;20309;-46
2023/01/30 05:38:03;;;;;;;11.57;10.37;;;;;;;-0.04;100.00;99020.16;4184279;28;20226;-46
2023/01/30 05:40:06;;;;;;;13.77;10.83;;;;;;;0.01;100.00;99017.78;4168954;28;20663;-46
2023/01/30 05:42:07;;;;;;;13.30;10.50;;;;;;;0.06;100.00;99018.13;4164237;28;20290;-47
2023/01/30 05:44:09;;;;;;;11.07;9.97;;;;;;;0.11;100.00;99023.00;4182271;28;20226;-46
2023/01/30 05:46:13;;;;;;;9.83;8.83;;;;;;;0.10;100.00;99037.44;4183758;28;20270;-46
2023/01/30 05:48:15;;;;;;;14.10;11.23;;;;;;;0.10;100.00;99043.69;4183860;28;20212;-46
2023/01/30 05:50:17;;;;;;;10.53;9.33;;;;;;;0.12;100.00;99036.28;4169271;28;20632;-47
2023/01/30 05:52:18;;;;;;;13.77;10.40;;;;;;;0.06;100.00;99028.88;4181402;28;20255;-46
2023/01/30 05:54:20;;;;;;;12.03;10.63;;;;;;;0.07;100.00;99038.63;4181413;28;20276;-46
2023/01/30 05:56:22;;;;;;;16.20;11.97;;;;;;;0.12;100.00;99046.19;4181006;28;20238;-46
2023/01/30 05:58:25;;;;;;;11.60;10.30;;;;;;;0.05;100.00;99029.91;4176796;28;20277;-46
2023/01/30 06:00:27;;;;;;;12.07;9.87;;;;;;;0.11;100.00;99039.13;4177651;28;20241;-46
2023/01/30 06:02:30;;;;;;;11.43;9.47;;;;;;;0.12;100.00;99030.91;4179639;28;20295;-46
2023/01/30 06:04:31;;;;;;;11.80;9.83;;;;;;;0.10;100.00;99015.94;4180072;28;20258;-46
2023/01/30 06:06:33;;;;;;;12.70;11.50;;;;;;;0.11;100.00;99010.38;4178002;28;20310;-46
2023/01/30 06:08:35;;;;;;;14.60;10.67;;;;;;;0.07;100.00;99014.41;4176383;28;20243;-46
2023/01/30 06:10:37;;;;;;;15.43;10.00;;;;;;;0.06;100.00;99002.00;4174232;28;20319;-46
2023/01/30 06:12:38;;;;;;;12.10;10.90;;;;;;;0.08;100.00;99013.41;4175612;28;20207;-46
2023/01/30 06:14:40;;;;;;;14.97;12.63;;;;;;;0.09;100.00;99007.00;4172125;28;20322;-46
2023/01/30 06:16:42;;;;;;;14.10;12.60;;;;;;;0.11;100.00;99006.84;4178398;28;20234;-46
2023/01/30 06:18:46;;;;;;;14.47;12.10;;;;;;;0.11;100.00;99015.78;4179798;28;20215;-46
2023/01/30 06:20:48;;;;;;;18.10;10.30;;;;;;;0.09;100.00;99015.06;4180913;28;20253;-46
2023/01/30 06:22:50;;;;;;;11.87;10.63;;;;;;;0.10;100.00;99013.25;4178302;28;20242;-46
2023/01/30 06:24:52;;;;;;;13.27;10.73;;;;;;;0.08;100.00;99016.09;4181373;28;20227;-46
2023/01/30 06:26:54;;;;;;;14.50;11.57;;;;;;;0.13;100.00;99016.44;4174851;28;20228;-46
2023/01/30 06:28:55;;;;;;;15.00;12.43;;;;;;;0.18;100.00;99023.97;4178253;28;20227;-46
2023/01/30 06:30:57;;;;;;;19.13;10.80;;;;;;;0.18;100.00;99024.81;4176157;28;20635;-46
2023/01/30 06:32:59;;;;;;;12.73;11.47;;;;;;;0.18;100.00;99035.59;4178695;28;20204;-46
2023/01/30 06:35:01;;;;;;;9.73;8.27;;;;;;;0.16;100.00;99026.81;4164938;28;20327;-46
2023/01/30 06:37:03;;;;;;;12.87;11.57;;;;;;;0.18;100.00;99008.69;4180846;28;20335;-46
2023/01/30 06:39:05;;;;;;;15.73;10.47;;;;;;;0.19;100.00;99004.97;4183466;28;20215;-46
2023/01/30 06:41:07;;;;;;;11.03;9.90;;;;;;;0.17;100.00;99009.69;4168763;28;20200;-46
2023/01/30 06:43:13;;;;;;;11.07;9.90;;;;;;;0.23;100.00;99006.31;4168988;28;20204;-46
2023/01/30 06:45:18;;;;;;;10.47;9.47;;;;;;;0.26;100.00;99005.97;4185037;28;20203;-46
2023/01/30 06:47:27;;;;;;;13.90;12.20;;;;;;;0.28;100.00;99003.09;4178114;28;20224;-46
2023/01/30 06:49:29;;;;;;;12.73;11.40;;;;;;;0.26;100.00;99019.41;4178551;28;20252;-46
2023/01/30 06:51:31;;;;;;;13.13;11.13;;;;;;;0.30;100.00;99027.97;4181281;28;20257;-46
2023/01/30 06:53:40;;;;;;;10.73;9.63;;;;;;;0.27;100.00;99034.53;4179819;28;20234;-47
2023/01/30 06:55:42;;;;;;;10.67;9.63;;;;;;;0.38;100.00;99036.88;4182627;28;20207;-46
2023/01/30 06:57:45;;;;;;;10.40;9.00;;;;;;;0.32;100.00;99040.25;4181455;28;20204;-46
2023/01/30 06:59:46;;;;;;;12.23;11.03;;;;;;;0.34;100.00;99038.22;4181314;28;20203;-48
2023/01/30 07:01:48;;;;;;;9.33;7.63;;;;;;;0.32;100.00;99029.50;4182188;28;20212;-46
2023/01/30 07:03:50;;;;;;;12.03;10.80;;;;;;;0.37;100.00;99028.97;4182100;28;20227;-47
2023/01/30 07:06:02;;;;;;;12.27;11.03;;;;;;;0.39;100.00;99027.78;4182114;28;20302;-46
2023/01/30 07:08:04;;;;;;;13.03;10.87;;;;;;;0.35;100.00;99037.19;4185554;28;20866;-46
2023/01/30 07:10:07;;;;;;;10.50;9.27;;;;;;;0.39;100.00;99041.25;4185335;28;20199;-47
2023/01/30 07:12:10;;;;;;;11.90;10.13;;;;;;;0.41;100.00;99044.59;4176205;28;20204;-46
2023/01/30 07:14:12;;;;;;;14.77;10.80;;;;;;;0.38;100.00;99030.63;4183574;28;20278;-46
2023/01/30 07:16:13;;;;;;;11.70;9.63;;;;;;;0.36;100.00;99020.03;4178492;28;20736;-46
2023/01/30 07:18:15;;;;;;;9.77;7.73;;;;;;;0.35;100.00;99004.09;4174495;28;20322;-47
2023/01/30 07:20:17;;;;;;;13.70;10.93;;;;;;;0.32;100.00;98997.19;4176739;28;20626;-45
2023/01/30 07:22:19;;;;;;;13.53;11.30;;;;;;;0.28;100.00;99009.31;4180312;28;20225;-46
2023/01/30 07:24:23;;;;;;;17.43;12.60;;;;;;;0.29;100.00;99005.59;4171406;28;20224;-45
2023/01/30 07:26:25;;;;;;;13.97;10.07;;;;;;;0.31;100.00;99008.97;4130035;28;20636;-45
2023/01/30 07:28:28;;;;;;;10.50;9.47;;;;;;;0.30;100.00;99001.94;4154701;28;20209;-45
2023/01/30 07:30:32;;;;;;;9.50;8.57;;;;;;;0.28;100.00;99003.94;4166959;28;20212;-45
2023/01/30 07:32:34;;;;;;;18.97;11.77;;;;;;;0.26;100.00;99000.56;4146945;28;20240;-47
2023/01/30 07:34:36;;;;;;;12.27;10.97;;;;;;;0.25;100.00;99015.06;4150699;28;20695;-46
2023/01/30 07:36:39;;;;;;;14.57;10.93;;;;;;;0.29;100.00;99027.13;4166900;28;20216;-47
2023/01/30 07:38:41;;;;;;;11.40;8.70;;;;;;;0.33;100.00;99033.00;4150371;28;20216;-46
2023/01/30 07:40:49;;;;;;;11.77;10.23;;;;;;;0.28;100.00;99032.72;4154468;28;20728;-46
2023/01/30 07:42:59;;;;;;;11.80;10.63;;;;;;;0.33;100.00;99025.78;4155411;28;20213;-46
2023/01/30 07:45:06;;;;;;;13.93;11.07;;;;;;;0.31;100.00;99011.66;4156745;28;20598;-46
2023/01/30 07:47:10;;;;;;;10.33;8.23;;;;;;;0.31;100.00;99008.97;4150156;28;20226;-46
2023/01/30 07:49:13;;;;;;;10.27;8.97;;;;;;;0.31;100.00;99014.34;4152386;28;20204;-47
2023/01/30 07:51:15;;;;;;;11.30;10.20;;;;;;;0.31;100.00;99027.81;4131315;28;20259;-47
2023/01/30 07:53:20;;;;;;;15.33;9.90;;;;;;;0.39;100.00;99032.31;4156267;28;20287;-47
2023/01/30 07:55:26;;;;;;;10.73;9.63;;;;;;;0.36;100.00;99028.09;4152056;28;20208;-47
2023/01/30 07:57:36;;;;;;;10.13;9.13;;;;;;;0.39;100.00;99022.41;4147903;28;20206;-47
2023/01/30 07:59:40;;;;;;;11.77;10.67;;;;;;;0.40;100.00;99013.31;4166546;28;21331;-47
2023/01/30 08:01:42;;;;;;;12.03;10.83;;;;;;;0.38;100.00;99026.09;4138637;28;20210;-47
2023/01/30 08:03:45;;;;;;;16.27;12.27;;;;;;;0.41;100.00;99031.13;4154557;28;20232;-48
2023/01/30 08:05:47;;;;;;;11.63;10.53;;;;;;;0.43;100.00;99033.66;4154635;28;22026;-46
2023/01/30 08:07:59;;;;;;;12.70;10.67;;;;;;;0.42;100.00;99043.56;4156077;28;20339;-47
2023/01/30 08:10:02;;;;;;;11.07;9.87;;;;;;;0.45;100.00;99043.25;4150675;28;20209;-47
2023/01/30 08:12:05;;;;;;;10.77;9.67;;;;;;;0.48;100.00;99039.38;4143734;28;20259;-46
2023/01/30 08:14:07;;;;;;;11.70;10.50;;;;;;;0.45;100.00;99037.84;4150292;28;20261;-47
2023/01/30 08:16:09;;;;;;;9.53;8.53;;;;;;;0.47;100.00;99045.75;4165082;28;20209;-47
2023/01/30 08:18:11;;;;;;;9.70;8.80;;;;;;;0.51;100.00;99037.16;4151165;28;20201;-47
2023/01/30 08:20:23;;;;;;;10.30;8.80;;;;;;;0.55;100.00;99043.03;4149566;28;20775;-47
2023/01/30 08:22:25;;;;;;;8.13;7.17;;;;;;;0.52;100.00;99033.44;4155099;28;20674;-47
2023/01/30 08:24:27;;;;;;;11.67;10.43;;;;;;;0.53;100.00;99045.91;4151549;28;20271;-46
2023/01/30 08:26:29;;;;;;;12.13;8.82;;;;;;;0.54;100.00;99036.81;4152280;28;20287;-47
2023/01/30 08:28:31;;;;;;;8.10;7.38;;;;;;;0.54;100.00;99036.81;4149122;28;20225;-47
2023/01/30 08:30:33;;;;;;;10.00;8.93;;;;;;;0.57;100.00;99016.78;4137452;28;20236;-47
2023/01/30 08:32:35;;;;;;;9.50;7.67;;;;;;;0.57;100.00;99014.94;4156162;28;20661;-47
2023/01/30 08:34:46;;;;;;;10.97;9.87;;;;;;;0.58;100.00;99011.22;4146537;28;20250;-47
2023/01/30 08:36:48;;;;;;;10.50;9.20;;;;;;;0.64;100.00;99013.22;4150735;28;20208;-47
2023/01/30 08:38:53;;;;;;;10.97;9.90;;;;;;;0.63;100.00;99014.22;4148039;28;20214;-47
2023/01/30 08:40:56;;;;;;;8.93;8.13;;;;;;;0.66;100.00;99019.25;4138862;28;20210;-47
2023/01/30 08:42:59;;;;;;;10.30;8.17;;;;;;;0.69;100.00;99015.38;4155239;28;20205;-47
2023/01/30 08:45:01;;;;;;;8.53;7.67;;;;;;;0.67;100.00;99026.31;4148228;28;20283;-46
2023/01/30 08:47:04;;;;;;;7.23;6.73;;;;;;;0.69;100.00;99018.88;4148697;28;20224;-47
2023/01/30 08:49:11;;;;;;;7.83;7.03;;;;;;;0.68;100.00;99033.38;4152717;28;20200;-47
2023/01/30 08:51:14;;;;;;;8.45;7.68;;;;;;;0.65;100.00;99031.03;4139703;28;20236;-47
2023/01/30 08:53:16;;;;;;;7.53;6.53;;;;;;;0.77;100.00;99016.19;4154926;28;20299;-47
2023/01/30 08:55:19;;;;;;;7.53;6.83;;;;;;;0.76;100.00;99013.66;4152505;28;20223;-48
2023/01/30 08:57:22;;;;;;;8.17;7.33;;;;;;;0.77;100.00;99021.56;4156105;28;20204;-47
2023/01/30 08:59:34;;;;;;;8.17;7.37;;;;;;;0.75;100.00;99015.50;4153159;28;20201;-47
2023/01/30 09:01:37;;;;;;;5.97;5.27;;;;;;;0.74;100.00;99011.13;4154959;28;20614;-48
2023/01/30 09:03:39;;;;;;;6.83;6.07;;;;;;;0.86;100.00;99014.25;4148424;28;20322;-47
2023/01/30 09:05:42;;;;;;;6.97;6.47;;;;;;;0.88;100.00;99018.47;4151908;28;20204;-48
2023/01/30 09:07:44;;;;;;;6.68;5.93;;;;;;;0.90;100.00;99005.66;4164626;28;20355;-48
2023/01/30 09:09:47;;;;;;;6.88;6.28;;;;;;;0.95;100.00;99005.94;4153092;28;20208;-47
2023/01/30 09:12:00;;;;;;;6.72;6.13;;;;;;;0.92;100.00;99011.72;4152483;28;20570;-48
2023/01/30 09:14:02;;;;;;;6.68;6.13;;;;;;;0.94;100.00;99016.94;4149388;28;20225;-48
2023/01/30 09:16:09;;;;;;;6.78;5.75;;;;;;;0.98;100.00;99002.91;4149056;28;20293;-47
2023/01/30 09:18:11;;;;;;;6.43;5.82;;;;;;;0.89;100.00;99006.66;4148143;28;20279;-47
2023/01/30 09:20:13;;;;;;;6.85;6.00;;;;;;;0.90;100.00;99000.28;4147695;28;20239;-47
2023/01/30 09:22:15;;;;;;;5.10;4.63;;;;;;;0.95;100.00;98997.06;4142648;28;20213;-46
2023/01/30 09:24:18;;;;;;;6.25;5.20;;;;;;;0.96;100.00;99004.13;4140505;28;20232;-48
2023/01/30 09:26:20;;;;;;;6.65;6.05;;;;;;;0.94;100.00;99016.94;4146982;28;20366;-48
2023/01/30 09:28:23;;;;;;;5.35;4.95;;;;;;;0.98;100.00;99012.84;4134111;28;20226;-48
2023/01/30 09:30:24;;;;;;;7.82;5.10;;;;;;;1.06;100.00;99010.94;4145729;28;20296;-47
2023/01/30 09:32:26;;;;;;;6.60;5.20;;;;;;;1.07;100.00;98996.47;4143785;28;20248;-47
2023/01/30 09:34:28;;;;;;;4.45;3.63;;;;;;;1.06;100.00;98994.78;4145994;28;20235;-47
2023/01/30 09:36:30;;;;;;;6.20;5.00;;;;;;;1.07;100.00;98985.69;4147908;28;20208;-47
2023/01/30 09:38:31;;;;;;;4.60;4.17;;;;;;;1.06;100.00;98973.22;4148556;28;20227;-47
2023/01/30 09:40:36;;;;;;;5.85;5.35;;;;;;;1.12;100.00;98975.22;4129508;28;20226;-47